AYPY

Port Moresby Jacksons International Airport

Port Moresby, Papua New Guinea
TAF AYPY 101001Z 1012/1112 VRB03KT 9999 -SHRA SCT016 SCT030 BKN130 FM101800 00000KT 9999 BKN035
Issued Valid From Valid To
Dec-10 @ 10:01 UTC
(2 hours ago)
Dec-10 @ 12:00 UTC
(in 7 minutes)
Dec-11 @ 12:00 UTC
(in 24 hours)
Dec-10 @ 12:00 to Dec-10 @ 18:00
TAF AYPY 101001Z 1012/1112 VRB03KT 9999 -SHRA SCT016 SCT030 BKN130
Wind Visibility Clouds Conditions
Variable at 3 knots 10,000+ meters
  • Scattered at 1,600' AGL
  • Scattered at 3,000' AGL
  • Broken at 13,000' AGL
  • Light Rain
From Dec-10 @ 18:00 to Dec-11 @ 12:00
FM101800 00000KT 9999 BKN035
Visibility Clouds
10,000+ meters
  • Broken at 3,500' AGL
TAF AYPY 101001Z 1012/1112 VRB03KT 9999 -SHRA SCT016 SCT030 BKN130 FM101800 00000KT 9999 BKN035
Issued Dec-10 @ 10:01 UTC
(2 hours ago)
Valid From Dec-10 @ 12:00 UTC
(in 7 minutes)
Valid To Dec-11 @ 12:00 UTC
(in 24 hours)
Dec-10 @ 12:00 - Dec-10 @ 18:00
Wind Visibility
Variable at 3 knots 10,000+ meters
Clouds
  • Scattered at 1,600' AGL
  • Scattered at 3,000' AGL
  • Broken at 13,000' AGL
Conditions
  • Light Rain
From Dec-10 @ 18:00 - Dec-11 @ 12:00
Clouds
  • Broken at 3,500' AGL